Time;durP1;ratioP1;P1;durP2;ratioP2;P2;SDS_P1;SDS_P2;PMS_P1;PMS_P2;Temp;Humidity;BMP_temperature;BMP_pressure;BME280_temperature;BME280_humidity;BME280_pressure;Samples;Min_cycle;Max_cycle;Signal;HPM_P1;HPM_P2
2021/08/17 00:02:39;;;;;;;0.90;0.60;;;25.30;50.90;;;;;;6242399;28;20088;-71
2021/08/17 00:05:42;;;;;;;0.80;0.63;;;25.30;50.90;;;;;;6241882;28;20512;-71
2021/08/17 00:08:45;;;;;;;0.80;0.70;;;25.30;50.90;;;;;;6242077;28;20056;-70
2021/08/17 00:11:46;;;;;;;0.70;0.52;;;25.30;50.90;;;;;;6242313;28;20094;-71
2021/08/17 00:14:46;;;;;;;0.82;0.63;;;25.30;50.90;;;;;;6239132;28;20037;-71
2021/08/17 00:17:47;;;;;;;1.27;0.88;;;25.30;50.90;;;;;;6242174;28;20524;-70
2021/08/17 00:20:47;;;;;;;0.70;0.60;;;25.30;50.90;;;;;;6241923;28;20041;-70
2021/08/17 00:23:48;;;;;;;0.70;0.60;;;25.30;50.90;;;;;;6242330;28;20049;-71
2021/08/17 00:26:48;;;;;;;0.90;0.70;;;25.30;50.90;;;;;;6242586;28;20049;-71
2021/08/17 00:29:49;;;;;;;1.00;0.60;;;25.30;50.90;;;;;;6242487;28;20026;-71
2021/08/17 00:32:49;;;;;;;0.90;0.60;;;25.30;50.90;;;;;;6241602;28;20036;-71
2021/08/17 00:35:52;;;;;;;1.77;0.75;;;25.30;50.90;;;;;;6242528;28;20434;-71
2021/08/17 00:38:52;;;;;;;0.68;0.50;;;25.30;50.90;;;;;;6241349;28;20317;-71
2021/08/17 00:41:53;;;;;;;0.60;0.60;;;25.30;50.90;;;;;;6240559;28;20507;-71
2021/08/17 00:44:54;;;;;;;1.33;0.70;;;25.30;50.90;;;;;;6241500;28;20079;-71
2021/08/17 00:47:57;;;;;;;0.65;0.60;;;25.30;50.90;;;;;;6242408;28;20029;-71
2021/08/17 00:50:58;;;;;;;1.08;0.60;;;25.30;50.90;;;;;;6241125;28;20033;-71
2021/08/17 00:53:58;;;;;;;0.88;0.57;;;25.30;50.90;;;;;;6241841;28;20435;-71
2021/08/17 00:57:00;;;;;;;0.95;0.70;;;25.30;50.90;;;;;;6241216;28;20053;-71
2021/08/17 01:00:00;;;;;;;0.90;0.70;;;25.30;50.90;;;;;;6241458;28;20038;-71
2021/08/17 01:03:01;;;;;;;0.80;0.65;;;25.30;50.90;;;;;;6241102;28;20637;-71
2021/08/17 01:06:02;;;;;;;1.02;0.60;;;25.30;50.90;;;;;;6240992;28;20028;-71
2021/08/17 01:09:04;;;;;;;0.73;0.60;;;25.30;50.90;;;;;;6241861;28;20021;-71
2021/08/17 01:12:09;;;;;;;0.65;0.50;;;25.30;50.90;;;;;;6240875;28;20026;-71
2021/08/17 01:15:11;;;;;;;0.52;0.50;;;25.30;50.90;;;;;;6240726;28;20026;-71
2021/08/17 01:18:12;;;;;;;0.98;0.50;;;25.30;50.90;;;;;;6240143;28;20496;-71
2021/08/17 01:21:13;;;;;;;0.68;0.60;;;25.30;50.90;;;;;;6240701;28;20025;-71
2021/08/17 01:24:15;;;;;;;1.17;0.60;;;25.30;50.90;;;;;;6241311;28;20064;-71
2021/08/17 01:27:16;;;;;;;0.85;0.57;;;25.30;50.90;;;;;;6240452;28;20567;-71
2021/08/17 01:30:16;;;;;;;0.77;0.55;;;25.30;50.90;;;;;;6240788;28;20035;-71
2021/08/17 01:33:17;;;;;;;0.98;0.63;;;25.30;50.90;;;;;;6240709;28;20021;-71
2021/08/17 01:36:17;;;;;;;1.27;0.77;;;25.30;50.90;;;;;;6240882;28;20060;-71
2021/08/17 01:39:18;;;;;;;1.13;0.70;;;25.30;50.90;;;;;;6241089;28;20067;-71
2021/08/17 01:42:18;;;;;;;0.63;0.50;;;25.30;50.90;;;;;;6240520;28;20030;-71
2021/08/17 01:45:21;;;;;;;0.80;0.50;;;25.30;50.90;;;;;;6240373;28;20053;-71
2021/08/17 01:48:24;;;;;;;0.85;0.60;;;25.30;50.90;;;;;;6241057;28;20018;-71
2021/08/17 01:51:24;;;;;;;0.88;0.63;;;25.30;50.90;;;;;;6240204;28;20018;-71
2021/08/17 01:54:25;;;;;;;1.02;0.65;;;25.30;50.90;;;;;;6241014;28;20040;-71
2021/08/17 01:57:26;;;;;;;1.50;0.60;;;25.30;51.00;;;;;;6240098;28;20125;-71
2021/08/17 02:00:26;;;;;;;1.50;0.63;;;25.30;50.90;;;;;;6240206;28;20559;-71
2021/08/17 02:03:27;;;;;;;0.52;0.40;;;25.30;50.90;;;;;;6240872;28;20140;-71
2021/08/17 02:06:27;;;;;;;1.25;0.70;;;25.30;50.90;;;;;;6240234;28;20056;-71
2021/08/17 02:09:28;;;;;;;0.60;0.55;;;25.30;50.90;;;;;;6240239;28;20068;-71
2021/08/17 02:12:28;;;;;;;0.40;0.40;;;25.30;50.90;;;;;;6240684;28;20271;-71
2021/08/17 02:15:29;;;;;;;0.40;0.40;;;25.30;50.90;;;;;;6239467;28;20026;-71
2021/08/17 02:18:33;;;;;;;0.95;0.63;;;25.30;50.90;;;;;;6239951;28;20037;-71
2021/08/17 02:21:33;;;;;;;0.93;0.50;;;25.30;50.90;;;;;;6240325;28;20029;-71
2021/08/17 02:24:34;;;;;;;1.60;0.68;;;25.30;50.90;;;;;;6240822;28;20261;-71
2021/08/17 02:27:36;;;;;;;0.90;0.55;;;25.30;50.90;;;;;;6239230;28;20029;-71
2021/08/17 02:30:36;;;;;;;0.80;0.50;;;25.30;50.90;;;;;;6244061;28;20389;-71
2021/08/17 02:33:37;;;;;;;1.13;0.60;;;25.30;50.90;;;;;;6244870;28;20318;-71
2021/08/17 02:36:37;;;;;;;0.63;0.47;;;25.30;50.90;;;;;;6235805;28;20034;-71
2021/08/17 02:39:38;;;;;;;0.80;0.52;;;25.20;50.80;;;;;;6244625;28;20033;-72
2021/08/17 02:42:38;;;;;;;2.05;0.75;;;25.30;50.90;;;;;;6244542;28;20060;-71
2021/08/17 02:45:39;;;;;;;0.93;0.50;;;25.30;50.90;;;;;;6244752;28;20035;-71
2021/08/17 02:48:40;;;;;;;0.68;0.50;;;25.30;50.90;;;;;;6244309;28;20017;-71
2021/08/17 02:51:40;;;;;;;1.45;0.60;;;25.20;50.90;;;;;;6244336;28;20079;-71
2021/08/17 02:54:41;;;;;;;0.75;0.70;;;25.20;50.90;;;;;;6244746;28;20045;-72
2021/08/17 02:57:52;;;;;;;0.65;0.50;;;25.30;50.90;;;;;;6243940;28;20053;-71
2021/08/17 03:00:53;;;;;;;0.50;0.40;;;25.20;50.80;;;;;;6244246;28;20029;-71
2021/08/17 03:03:53;;;;;;;1.17;0.60;;;25.20;50.80;;;;;;6243367;28;20075;-71
2021/08/17 03:06:55;;;;;;;1.00;0.50;;;25.30;50.90;;;;;;6244290;28;20026;-71
2021/08/17 03:09:55;;;;;;;0.60;0.50;;;25.20;51.60;;;;;;6243667;28;20036;-71
2021/08/17 03:12:56;;;;;;;0.60;0.50;;;25.30;50.90;;;;;;6243876;28;20444;-71
2021/08/17 03:15:57;;;;;;;4.10;0.98;;;25.20;50.80;;;;;;6219530;28;20357;-71
2021/08/17 03:18:58;;;;;;;0.95;0.70;;;25.30;50.90;;;;;;6230423;28;20053;-71
2021/08/17 03:21:58;;;;;;;1.40;0.90;;;25.30;50.90;;;;;;6243846;28;20037;-71
2021/08/17 03:24:59;;;;;;;1.30;0.90;;;25.30;50.90;;;;;;6243818;28;20040;-71
2021/08/17 03:27:59;;;;;;;1.25;0.77;;;25.30;50.90;;;;;;6243239;28;20101;-71
2021/08/17 03:31:00;;;;;;;0.82;0.60;;;25.30;50.90;;;;;;6243898;28;20025;-71
2021/08/17 03:34:00;;;;;;;1.13;0.60;;;25.20;50.80;;;;;;6243536;28;20488;-70
2021/08/17 03:37:01;;;;;;;0.82;0.47;;;25.20;50.80;;;;;;6243740;28;20056;-71
2021/08/17 03:40:03;;;;;;;0.90;0.65;;;25.30;50.90;;;;;;6241520;28;20034;-71
2021/08/17 03:43:03;;;;;;;0.80;0.52;;;25.20;50.80;;;;;;6243844;28;20032;-71
2021/08/17 03:46:08;;;;;;;1.17;0.75;;;25.20;50.80;;;;;;6242943;28;20033;-71
2021/08/17 03:49:09;;;;;;;1.30;0.80;;;25.30;50.90;;;;;;6242962;28;20116;-72
2021/08/17 03:52:09;;;;;;;1.67;0.55;;;25.20;50.70;;;;;;6242776;28;20059;-71
2021/08/17 03:55:11;;;;;;;1.52;0.88;;;25.30;50.90;;;;;;6242740;28;20013;-71
2021/08/17 03:58:12;;;;;;;1.35;0.63;;;25.30;50.80;;;;;;6241983;28;20056;-71
2021/08/17 04:01:14;;;;;;;1.05;0.43;;;25.30;50.90;;;;;;6242851;28;20061;-71
2021/08/17 04:04:14;;;;;;;1.98;0.70;;;25.30;50.80;;;;;;6242904;28;20056;-71
2021/08/17 04:07:15;;;;;;;0.65;0.63;;;25.30;50.90;;;;;;6242105;28;20396;-71
2021/08/17 04:10:16;;;;;;;0.80;0.52;;;25.20;50.70;;;;;;6242324;28;20033;-71
2021/08/17 04:13:17;;;;;;;0.70;0.52;;;25.30;50.90;;;;;;6240320;28;20341;-71
2021/08/17 04:16:17;;;;;;;1.88;0.90;;;25.20;50.80;;;;;;6239174;28;20033;-71
2021/08/17 04:19:18;;;;;;;0.80;0.52;;;25.30;50.90;;;;;;6242114;28;20037;-71
2021/08/17 04:22:20;;;;;;;1.20;0.60;;;25.30;50.90;;;;;;6242082;28;20033;-71
2021/08/17 04:25:21;;;;;;;0.85;0.60;;;25.20;50.80;;;;;;6242146;28;20044;-71
2021/08/17 04:28:22;;;;;;;0.90;0.57;;;25.20;50.80;;;;;;6241890;28;20034;-71
2021/08/17 04:31:22;;;;;;;1.27;0.70;;;25.20;50.90;;;;;;6241786;28;20071;-71
2021/08/17 04:34:23;;;;;;;1.25;0.68;;;25.20;50.80;;;;;;6242587;28;20040;-71
2021/08/17 04:37:23;;;;;;;0.75;0.50;;;25.20;50.90;;;;;;6241841;28;20114;-71
2021/08/17 04:40:24;;;;;;;0.50;0.50;;;25.20;50.90;;;;;;6240981;28;20036;-71
2021/08/17 04:43:25;;;;;;;0.70;0.55;;;25.20;50.90;;;;;;6242136;28;20314;-71
2021/08/17 04:46:25;;;;;;;1.23;0.60;;;25.20;50.90;;;;;;6225519;28;20474;-71
2021/08/17 04:49:26;;;;;;;4.60;1.02;;;25.20;51.70;;;;;;6239483;28;20025;-70
2021/08/17 04:52:26;;;;;;;1.15;0.43;;;25.30;52.20;;;;;;6237736;28;20025;-70
2021/08/17 04:55:27;;;;;;;4.22;1.88;;;25.30;51.10;;;;;;6240741;28;20334;-70
2021/08/17 04:58:27;;;;;;;2.15;0.90;;;25.30;51.70;;;;;;6237782;28;20053;-72
2021/08/17 05:01:28;;;;;;;3.53;0.80;;;25.30;51.70;;;;;;6236774;28;20072;-70
2021/08/17 05:04:28;;;;;;;2.28;0.80;;;25.30;51.30;;;;;;6239237;28;20035;-70
2021/08/17 05:07:29;;;;;;;2.10;0.73;;;25.40;51.30;;;;;;6238830;28;20126;-69
2021/08/17 05:10:29;;;;;;;1.75;0.80;;;25.40;51.70;;;;;;6238791;28;20030;-69
2021/08/17 05:13:30;;;;;;;2.97;0.88;;;25.30;51.70;;;;;;6237487;28;20034;-72
2021/08/17 05:16:30;;;;;;;3.78;0.88;;;25.30;52.90;;;;;;6239533;28;20317;-70
2021/08/17 05:19:31;;;;;;;4.75;1.00;;;25.40;53.30;;;;;;6238666;28;20075;-69
2021/08/17 05:22:31;;;;;;;8.57;1.48;;;25.30;52.50;;;;;;6239405;28;20026;-70
2021/08/17 05:25:32;;;;;;;5.53;1.27;;;25.30;52.50;;;;;;6239438;28;20113;-71
2021/08/17 05:28:33;;;;;;;4.30;2.42;;;25.30;52.40;;;;;;6239241;28;20040;-69
2021/08/17 05:31:33;;;;;;;13.40;1.42;;;25.40;53.60;;;;;;6239076;28;20447;-72
2021/08/17 05:34:34;;;;;;;5.05;1.50;;;25.40;54.10;;;;;;6238628;28;20033;-69
2021/08/17 05:37:35;;;;;;;7.30;3.60;;;25.40;52.70;;;;;;6238452;28;20036;-70
2021/08/17 05:40:35;;;;;;;9.63;3.20;;;25.40;53.90;;;;;;6229932;28;20030;-71
2021/08/17 05:43:36;;;;;;;7.72;2.80;;;25.50;53.50;;;;;;6236887;28;20481;-69
2021/08/17 05:46:36;;;;;;;3.70;2.10;;;25.40;53.50;;;;;;6239527;28;20101;-69
2021/08/17 05:49:38;;;;;;;3.85;1.85;;;25.40;53.00;;;;;;6238537;28;20492;-70
2021/08/17 05:52:38;;;;;;;5.88;1.85;;;25.30;52.90;;;;;;6237410;28;20033;-72
2021/08/17 05:55:39;;;;;;;5.18;2.83;;;25.40;53.40;;;;;;6237403;28;20547;-71
2021/08/17 05:58:39;;;;;;;6.15;2.30;;;25.50;54.50;;;;;;6238758;28;20065;-71
2021/08/17 06:01:40;;;;;;;8.02;3.58;;;25.40;53.40;;;;;;6232487;28;20447;-70
2021/08/17 06:04:40;;;;;;;6.10;2.95;;;25.40;54.20;;;;;;6244588;28;20072;-70
2021/08/17 06:07:48;;;;;;;11.07;2.78;;;25.50;54.10;;;;;;6245639;28;20527;-71
2021/08/17 06:10:49;;;;;;;6.25;2.28;;;25.50;53.10;;;;;;6246509;28;20079;-71
2021/08/17 06:13:51;;;;;;;8.63;2.42;;;25.50;53.00;;;;;;6246466;28;20022;-71
2021/08/17 06:16:51;;;;;;;5.88;1.98;;;25.50;53.00;;;;;;6245162;28;20072;-72
2021/08/17 06:19:52;;;;;;;5.47;1.90;;;25.50;53.30;;;;;;6244333;28;20067;-72
2021/08/17 06:22:52;;;;;;;2.58;1.45;;;25.40;53.40;;;;;;6244399;28;20017;-72
2021/08/17 06:25:53;;;;;;;5.82;1.70;;;25.40;53.40;;;;;;6244836;28;20033;-72
2021/08/17 06:28:53;;;;;;;3.10;1.85;;;25.40;53.30;;;;;;6245982;28;20061;-72
2021/08/17 06:31:54;;;;;;;3.63;1.40;;;25.40;53.20;;;;;;6245176;28;20033;-71
2021/08/17 06:34:55;;;;;;;2.80;1.90;;;25.40;53.20;;;;;;6245633;28;20037;-72
2021/08/17 06:37:55;;;;;;;3.47;1.70;;;25.40;53.30;;;;;;6245460;28;20037;-72
2021/08/17 06:40:56;;;;;;;4.25;1.55;;;25.40;53.10;;;;;;6245240;28;20201;-72
2021/08/17 06:43:56;;;;;;;3.70;1.67;;;25.40;53.20;;;;;;6246109;28;20060;-72
2021/08/17 06:46:57;;;;;;;2.75;1.42;;;25.40;53.30;;;;;;6245752;28;20566;-72
2021/08/17 06:49:57;;;;;;;4.47;1.60;;;25.40;53.20;;;;;;6244964;28;20104;-72
2021/08/17 06:52:58;;;;;;;3.95;1.50;;;25.40;53.20;;;;;;6245692;28;20098;-72
2021/08/17 06:55:58;;;;;;;4.95;1.50;;;25.40;53.20;;;;;;6244697;28;20148;-72
2021/08/17 06:58:59;;;;;;;3.78;1.90;;;25.40;53.30;;;;;;6245151;28;20041;-72
2021/08/17 07:01:59;;;;;;;5.05;1.60;;;25.40;53.40;;;;;;6222646;28;20018;-72
2021/08/17 07:05:00;;;;;;;5.15;1.38;;;25.40;53.60;;;;;;6242591;28;20021;-72
2021/08/17 07:08:01;;;;;;;7.90;1.80;;;25.30;53.10;;;;;;6247261;28;20029;-72
2021/08/17 07:11:02;;;;;;;7.60;1.63;;;25.30;53.10;;;;;;6246883;28;20052;-71
2021/08/17 07:14:02;;;;;;;9.55;1.70;;;25.30;53.10;;;;;;6246327;28;20400;-72
2021/08/17 07:17:03;;;;;;;4.85;1.60;;;25.30;53.10;;;;;;6246811;28;20046;-72
2021/08/17 07:20:04;;;;;;;4.15;1.45;;;25.30;53.10;;;;;;6246080;28;20064;-72
2021/08/17 07:23:05;;;;;;;5.15;1.42;;;25.30;53.20;;;;;;6246247;28;20172;-72
2021/08/17 07:26:06;;;;;;;4.28;1.75;;;25.30;53.10;;;;;;6246332;28;20038;-72
2021/08/17 07:29:06;;;;;;;2.60;1.38;;;25.30;53.10;;;;;;6246258;28;20022;-72
2021/08/17 07:32:07;;;;;;;2.97;1.48;;;25.30;53.20;;;;;;6246276;28;20526;-72
2021/08/17 07:35:09;;;;;;;6.25;1.80;;;25.30;53.20;;;;;;6244619;28;20068;-72
2021/08/17 07:38:10;;;;;;;4.10;1.38;;;25.30;53.30;;;;;;6246162;28;20400;-72
2021/08/17 07:41:11;;;;;;;3.55;1.40;;;25.20;53.10;;;;;;6244263;28;20037;-72
2021/08/17 07:44:11;;;;;;;3.60;1.50;;;25.20;53.30;;;;;;6246160;28;20083;-72
2021/08/17 07:47:12;;;;;;;2.95;1.45;;;25.30;53.40;;;;;;6245766;28;20033;-71
2021/08/17 07:50:13;;;;;;;1.98;1.13;;;25.20;53.10;;;;;;6246020;28;20030;-72
2021/08/17 07:53:14;;;;;;;3.35;1.60;;;25.20;53.20;;;;;;6245777;28;20136;-72
2021/08/17 07:56:14;;;;;;;1.45;1.15;;;25.20;53.30;;;;;;6245405;28;20513;-72
2021/08/17 07:59:15;;;;;;;2.30;1.10;;;25.20;53.10;;;;;;6245517;28;20033;-72
2021/08/17 08:02:16;;;;;;;3.60;1.27;;;25.20;53.20;;;;;;6245240;28;20018;-72
2021/08/17 08:05:16;;;;;;;2.08;1.20;;;25.20;53.30;;;;;;6245344;28;20033;-72
2021/08/17 08:08:17;;;;;;;2.65;1.10;;;25.20;53.10;;;;;;6243708;28;20021;-72
2021/08/17 08:11:17;;;;;;;5.25;1.58;;;25.20;53.20;;;;;;6245030;28;20029;-71
2021/08/17 08:14:18;;;;;;;2.28;1.15;;;25.10;53.20;;;;;;6235030;28;20385;-72
2021/08/17 08:17:18;;;;;;;2.25;1.05;;;25.10;53.40;;;;;;6245385;28;20135;-72
2021/08/17 08:20:20;;;;;;;3.55;1.42;;;25.10;53.40;;;;;;6245038;28;20412;-72
2021/08/17 08:23:20;;;;;;;3.78;1.23;;;25.10;53.40;;;;;;6244952;28;20075;-72
2021/08/17 08:26:21;;;;;;;2.05;1.10;;;25.10;53.40;;;;;;6244309;28;20021;-72
2021/08/17 08:29:22;;;;;;;1.83;1.23;;;25.10;53.40;;;;;;6244659;28;20029;-72
2021/08/17 08:32:22;;;;;;;1.45;1.00;;;25.10;53.40;;;;;;6244756;28;20061;-73
2021/08/17 08:35:23;;;;;;;2.63;1.23;;;25.10;53.40;;;;;;6244246;28;20108;-72
2021/08/17 08:38:23;;;;;;;4.40;1.40;;;25.10;53.60;;;;;;6244704;28;20029;-72
2021/08/17 08:41:24;;;;;;;2.05;1.00;;;25.10;53.40;;;;;;6244681;28;20034;-71
2021/08/17 08:44:24;;;;;;;4.88;1.20;;;25.10;53.30;;;;;;6244149;28;20152;-71
2021/08/17 08:47:26;;;;;;;1.83;1.05;;;25.10;53.50;;;;;;6243915;28;20025;-71
2021/08/17 08:50:29;;;;;;;5.25;1.15;;;25.10;53.40;;;;;;6243712;28;20029;-72
2021/08/17 08:53:29;;;;;;;3.92;1.48;;;25.10;53.50;;;;;;6244225;28;20064;-72
2021/08/17 08:56:31;;;;;;;2.22;1.10;;;25.10;53.60;;;;;;6244247;28;20061;-72
2021/08/17 08:59:31;;;;;;;2.10;1.20;;;25.10;53.60;;;;;;6244154;28;20034;-71
2021/08/17 09:02:32;;;;;;;2.28;1.10;;;25.10;53.50;;;;;;6244284;28;20084;-72
2021/08/17 09:05:50;;;;;;;3.05;1.40;;;25.10;53.60;;;;;;6243568;28;20029;-71
2021/08/17 09:09:05;;;;;;;1.92;1.10;;;25.10;53.60;;;;;;6244407;28;20075;-72
2021/08/17 09:12:06;;;;;;;3.70;1.10;;;25.10;53.60;;;;;;6242267;28;20055;-72
2021/08/17 09:15:15;;;;;;;1.95;1.10;;;25.10;53.60;;;;;;6226804;28;20041;-72
2021/08/17 09:18:16;;;;;;;1.45;0.90;;;25.10;53.60;;;;;;6240474;28;20032;-72
2021/08/17 09:21:16;;;;;;;1.83;0.98;;;25.10;53.60;;;;;;6243927;28;20041;-72
2021/08/17 09:24:25;;;;;;;2.60;1.20;;;25.00;53.60;;;;;;6243525;28;20030;-72
2021/08/17 09:27:28;;;;;;;4.05;0.98;;;25.10;53.60;;;;;;6244540;28;20033;-71
2021/08/17 09:30:31;;;;;;;2.22;1.20;;;25.00;53.60;;;;;;6244339;28;20025;-72
2021/08/17 09:33:39;;;;;;;2.10;0.95;;;25.00;53.50;;;;;;6243890;28;20040;-72
2021/08/17 09:36:42;;;;;;;2.83;1.20;;;25.00;53.50;;;;;;6243422;28;20393;-71
2021/08/17 09:39:48;;;;;;;2.58;0.98;;;25.00;53.50;;;;;;6242823;28;20044;-72
2021/08/17 09:42:49;;;;;;;2.60;1.00;;;25.10;53.60;;;;;;6245997;28;20021;-72
2021/08/17 09:45:50;;;;;;;1.55;0.90;;;25.00;53.60;;;;;;6243883;28;20025;-72
2021/08/17 09:48:51;;;;;;;1.83;1.10;;;25.00;53.50;;;;;;6243057;28;20025;-72
2021/08/17 09:51:53;;;;;;;1.83;1.10;;;25.00;53.50;;;;;;6243485;28;20112;-72
2021/08/17 09:54:53;;;;;;;1.55;0.88;;;25.00;53.60;;;;;;6243783;28;20037;-72
2021/08/17 09:57:54;;;;;;;1.55;0.93;;;25.00;53.60;;;;;;6243163;28;20045;-72
2021/08/17 10:00:58;;;;;;;1.98;1.05;;;25.00;53.40;;;;;;6243170;28;20069;-72
2021/08/17 10:03:59;;;;;;;1.53;0.90;;;25.00;53.60;;;;;;6243347;28;20492;-72
2021/08/17 10:07:01;;;;;;;1.92;0.82;;;25.00;53.40;;;;;;6243503;28;20029;-72
2021/08/17 10:10:01;;;;;;;2.13;0.93;;;25.00;53.40;;;;;;6243747;28;20325;-72
2021/08/17 10:13:02;;;;;;;2.33;1.15;;;25.00;53.30;;;;;;6243106;28;20018;-72
2021/08/17 10:16:03;;;;;;;1.55;1.00;;;25.00;53.20;;;;;;6223530;28;20025;-72
2021/08/17 10:19:06;;;;;;;1.92;0.93;;;25.00;53.30;;;;;;6242838;28;20030;-72
2021/08/17 10:22:07;;;;;;;1.52;0.88;;;25.00;53.30;;;;;;6243546;28;20072;-72
2021/08/17 10:25:17;;;;;;;1.45;0.75;;;25.00;53.20;;;;;;6242790;28;20022;-72
2021/08/17 10:28:26;;;;;;;1.40;0.88;;;25.00;53.30;;;;;;6242079;28;20095;-72
2021/08/17 10:31:33;;;;;;;1.67;1.00;;;25.00;53.50;;;;;;6243163;28;20022;-72
2021/08/17 10:34:37;;;;;;;1.67;1.10;;;25.00;53.50;;;;;;6242961;28;20029;-71
2021/08/17 10:37:38;;;;;;;1.07;0.70;;;25.00;53.40;;;;;;6242773;28;20031;-72
2021/08/17 10:40:51;;;;;;;1.38;0.80;;;25.00;53.40;;;;;;6242924;28;20373;-72
2021/08/17 10:43:51;;;;;;;2.13;1.00;;;25.00;53.40;;;;;;6243002;28;20069;-72
2021/08/17 10:47:06;;;;;;;1.58;0.82;;;25.00;53.40;;;;;;6243372;28;20029;-72
2021/08/17 10:50:08;;;;;;;;;;;25.00;53.80;;;;;;6244333;28;20475;-72
2021/08/17 10:53:40;;;;;;;4.75;0.85;;;25.00;53.80;;;;;;6247422;28;19909;-72
2021/08/17 10:56:41;;;;;;;4.07;0.90;;;25.00;53.50;;;;;;6246718;28;20095;-72
2021/08/17 10:59:44;;;;;;;4.28;0.80;;;25.00;53.40;;;;;;6246857;28;20333;-72
2021/08/17 11:02:55;;;;;;;4.88;1.10;;;25.00;53.30;;;;;;6247043;28;20029;-72
2021/08/17 11:05:56;;;;;;;1.10;0.80;;;25.00;53.50;;;;;;6246413;28;20040;-71
2021/08/17 11:09:00;;;;;;;1.35;0.70;;;25.00;53.40;;;;;;6250734;28;20025;-72
2021/08/17 11:12:08;;;;;;;1.17;0.70;;;25.00;53.40;;;;;;6246558;28;20028;-72
2021/08/17 11:15:09;;;;;;;2.88;0.80;;;25.00;53.50;;;;;;6242800;28;20043;-72
2021/08/17 11:18:10;;;;;;;1.48;1.00;;;25.00;53.60;;;;;;6247519;28;20415;-72
2021/08/17 11:21:10;;;;;;;2.72;1.00;;;25.00;53.50;;;;;;6246211;28;20083;-72
2021/08/17 11:24:13;;;;;;;2.60;0.90;;;24.90;53.40;;;;;;6246491;28;20057;-71
2021/08/17 11:27:16;;;;;;;1.58;0.88;;;25.00;53.50;;;;;;6245112;28;20033;-72
2021/08/17 11:30:17;;;;;;;2.03;0.88;;;25.00;53.60;;;;;;6245997;28;20397;-71
2021/08/17 11:33:17;;;;;;;3.53;1.17;;;24.90;53.50;;;;;;6246826;28;20021;-72
2021/08/17 11:36:23;;;;;;;1.67;0.93;;;25.00;53.50;;;;;;6245889;28;20038;-71
2021/08/17 11:39:52;;;;;;;2.35;1.00;;;24.90;53.40;;;;;;6245646;28;20408;-72
2021/08/17 11:42:59;;;;;;;1.17;0.90;;;25.00;53.60;;;;;;6246142;28;20484;-72
2021/08/17 11:46:00;;;;;;;2.03;0.93;;;24.90;53.50;;;;;;6246131;28;20026;-71
2021/08/17 11:49:23;;;;;;;1.50;0.80;;;24.90;53.50;;;;;;6246013;28;20025;-71
2021/08/17 11:52:26;;;;;;;1.63;1.00;;;24.90;53.40;;;;;;6246248;28;20025;-72
2021/08/17 11:55:29;;;;;;;1.60;0.77;;;24.90;53.30;;;;;;6245735;28;20032;-72
2021/08/17 11:58:30;;;;;;;2.03;0.80;;;24.90;53.30;;;;;;6245546;28;20057;-72
2021/08/17 12:01:30;;;;;;;1.45;0.95;;;24.90;53.40;;;;;;6244326;28;20029;-71
2021/08/17 12:04:31;;;;;;;1.80;0.88;;;24.90;53.40;;;;;;6245516;28;20048;-71
2021/08/17 12:07:33;;;;;;;1.58;0.82;;;24.90;53.30;;;;;;6245441;28;20401;-71
2021/08/17 12:10:35;;;;;;;1.67;0.90;;;24.90;53.60;;;;;;6245100;28;20049;-71
2021/08/17 12:13:38;;;;;;;2.78;0.70;;;24.90;53.60;;;;;;6240631;28;20084;-71
2021/08/17 12:16:39;;;;;;;2.13;1.00;;;24.90;53.40;;;;;;6225905;28;20025;-72
2021/08/17 12:19:45;;;;;;;1.30;0.68;;;24.90;53.60;;;;;;6244781;28;20044;-72
2021/08/17 12:22:46;;;;;;;1.00;0.70;;;24.90;53.50;;;;;;6245314;28;20021;-72
2021/08/17 12:25:49;;;;;;;2.03;0.93;;;24.90;53.50;;;;;;6245115;28;20064;-72
2021/08/17 12:28:51;;;;;;;1.85;0.93;;;24.90;53.70;;;;;;6244914;28;20025;-72
2021/08/17 12:31:53;;;;;;;2.22;0.93;;;24.90;53.60;;;;;;6243961;28;20048;-72
2021/08/17 12:35:02;;;;;;;1.42;0.70;;;24.90;53.60;;;;;;6244818;28;20035;-72
2021/08/17 12:38:17;;;;;;;1.50;0.80;;;24.90;53.70;;;;;;6244412;28;20393;-72
2021/08/17 12:41:28;;;;;;;1.95;0.80;;;24.90;53.60;;;;;;6244243;28;20030;-71
2021/08/17 12:44:40;;;;;;;0.93;0.65;;;24.90;53.80;;;;;;6244769;28;20057;-72
2021/08/17 12:47:56;;;;;;;1.40;1.10;;;24.90;53.70;;;;;;6243751;28;20112;-71
2021/08/17 12:50:57;;;;;;;1.60;0.77;;;24.90;53.70;;;;;;6243944;28;20030;-72
2021/08/17 12:53:58;;;;;;;2.15;0.90;;;24.90;53.60;;;;;;6244627;28;20035;-71
2021/08/17 12:56:58;;;;;;;3.05;0.88;;;24.90;53.60;;;;;;6243956;28;20041;-72
2021/08/17 12:59:59;;;;;;;2.03;1.00;;;24.90;53.70;;;;;;6244017;28;20052;-73
2021/08/17 13:03:04;;;;;;;2.40;0.98;;;24.90;53.60;;;;;;6242474;28;20026;-72
2021/08/17 13:06:05;;;;;;;2.33;0.90;;;24.90;53.80;;;;;;6216790;28;20046;-72
2021/08/17 13:09:06;;;;;;;1.33;0.80;;;24.90;53.70;;;;;;6232129;28;20091;-71
2021/08/17 13:12:08;;;;;;;3.75;0.90;;;24.90;53.70;;;;;;6245328;28;20136;-71
2021/08/17 13:15:10;;;;;;;1.13;0.80;;;24.90;53.90;;;;;;6226516;28;20041;-71
2021/08/17 13:18:11;;;;;;;1.58;0.95;;;24.90;53.90;;;;;;6223390;28;20029;-72
2021/08/17 13:21:11;;;;;;;1.73;1.00;;;24.90;53.70;;;;;;6244377;28;20025;-72
2021/08/17 13:24:12;;;;;;;2.05;1.10;;;24.90;53.90;;;;;;6243366;28;20029;-72
2021/08/17 13:27:13;;;;;;;1.95;1.00;;;24.90;53.90;;;;;;6243886;28;20112;-72
2021/08/17 13:30:14;;;;;;;2.90;0.70;;;24.90;53.90;;;;;;6243191;28;20033;-72
2021/08/17 13:33:15;;;;;;;1.00;0.60;;;24.90;54.00;;;;;;6243452;28;20022;-71
2021/08/17 13:36:15;;;;;;;1.20;0.70;;;24.90;54.00;;;;;;6243787;28;20159;-71
2021/08/17 13:39:16;;;;;;;1.40;0.80;;;24.90;54.00;;;;;;6243372;28;20021;-71
2021/08/17 13:42:17;;;;;;;1.35;0.90;;;24.90;53.90;;;;;;6242355;28;20420;-71
2021/08/17 13:45:17;;;;;;;1.15;0.73;;;24.90;53.90;;;;;;6243112;28;20025;-72
2021/08/17 13:48:18;;;;;;;1.52;0.63;;;24.80;53.90;;;;;;6243285;28;20034;-72
2021/08/17 13:51:18;;;;;;;1.73;0.80;;;24.80;53.90;;;;;;6243074;28;20037;-72
2021/08/17 13:54:19;;;;;;;1.38;0.60;;;24.80;53.90;;;;;;6243263;28;20037;-72
2021/08/17 13:57:20;;;;;;;2.58;0.90;;;24.80;53.90;;;;;;6243232;28;20064;-72
2021/08/17 14:00:20;;;;;;;1.35;1.00;;;24.90;54.00;;;;;;6242818;28;20072;-72
2021/08/17 14:03:21;;;;;;;0.90;0.63;;;24.90;54.00;;;;;;6243219;28;20029;-72
2021/08/17 14:06:22;;;;;;;0.82;0.60;;;24.80;53.80;;;;;;6243516;28;20021;-72
2021/08/17 14:09:22;;;;;;;1.77;0.73;;;24.80;53.90;;;;;;6244077;28;20392;-71
2021/08/17 14:12:23;;;;;;;1.75;0.95;;;24.80;53.80;;;;;;6243417;28;20057;-72
2021/08/17 14:15:23;;;;;;;1.83;0.90;;;24.80;53.80;;;;;;6237279;28;20033;-71
2021/08/17 14:18:24;;;;;;;1.15;0.60;;;24.80;53.90;;;;;;6243221;28;20083;-71
2021/08/17 14:21:25;;;;;;;1.50;0.77;;;24.80;53.90;;;;;;6242455;28;20081;-71
2021/08/17 14:24:26;;;;;;;1.42;0.85;;;24.90;54.00;;;;;;6243906;28;20519;-71
2021/08/17 14:27:26;;;;;;;1.98;0.80;;;24.80;53.90;;;;;;6247769;28;20026;-72
2021/08/17 14:30:27;;;;;;;0.90;0.75;;;24.80;54.00;;;;;;6247359;28;20180;-71
2021/08/17 14:33:27;;;;;;;1.60;0.90;;;24.90;53.90;;;;;;6247691;28;20025;-71
2021/08/17 14:36:28;;;;;;;2.60;0.98;;;24.90;54.00;;;;;;6245417;28;20044;-72
2021/08/17 14:39:28;;;;;;;1.55;0.80;;;24.80;54.00;;;;;;6247197;28;20449;-71
2021/08/17 14:42:32;;;;;;;1.77;0.80;;;24.80;53.90;;;;;;6246974;28;20056;-72
2021/08/17 14:45:33;;;;;;;2.20;1.05;;;24.80;54.00;;;;;;6247934;28;20040;-71
2021/08/17 14:48:33;;;;;;;0.95;0.70;;;24.80;53.80;;;;;;6247662;28;20033;-71
2021/08/17 14:51:34;;;;;;;1.50;0.65;;;24.80;53.80;;;;;;6247089;28;20038;-73
2021/08/17 14:54:34;;;;;;;1.98;0.70;;;24.80;53.90;;;;;;6246977;28;20017;-71
2021/08/17 14:57:35;;;;;;;0.88;0.70;;;24.80;53.90;;;;;;6247241;28;20161;-71
2021/08/17 15:00:36;;;;;;;1.00;0.50;;;24.80;53.90;;;;;;6247020;28;20041;-71
2021/08/17 15:03:36;;;;;;;2.55;1.02;;;24.80;54.00;;;;;;6246775;28;20049;-71
2021/08/17 15:06:37;;;;;;;1.40;0.82;;;24.80;54.00;;;;;;6246696;28;20529;-71
2021/08/17 15:09:39;;;;;;;1.75;1.02;;;24.80;54.60;;;;;;6246696;28;20286;-71
2021/08/17 15:12:41;;;;;;;1.23;0.60;;;24.80;53.90;;;;;;6246471;28;20044;-71
2021/08/17 15:15:45;;;;;;;1.63;0.95;;;24.80;53.90;;;;;;6246790;28;20083;-72
2021/08/17 15:18:48;;;;;;;1.20;1.03;;;24.80;54.00;;;;;;6246545;28;20068;-71
2021/08/17 15:21:49;;;;;;;2.50;1.02;;;24.80;53.80;;;;;;6246708;28;20116;-72
2021/08/17 15:24:49;;;;;;;2.58;1.00;;;24.80;54.00;;;;;;6246484;28;20036;-71
2021/08/17 15:27:51;;;;;;;1.05;0.80;;;24.80;53.90;;;;;;6246717;28;20025;-71
2021/08/17 15:30:53;;;;;;;1.85;0.85;;;24.80;53.90;;;;;;6246179;28;20038;-72
2021/08/17 15:33:53;;;;;;;1.23;0.90;;;24.80;53.90;;;;;;6247944;28;20025;-72
2021/08/17 15:36:54;;;;;;;1.42;0.90;;;24.80;53.90;;;;;;6244913;28;20717;-71
2021/08/17 15:39:55;;;;;;;4.00;0.90;;;24.80;53.90;;;;;;6246136;28;20040;-72
2021/08/17 15:42:55;;;;;;;1.08;0.95;;;24.80;53.90;;;;;;6246031;28;20068;-71
2021/08/17 15:45:56;;;;;;;1.15;0.80;;;24.80;54.00;;;;;;6246424;28;20022;-71
2021/08/17 15:48:56;;;;;;;0.88;0.80;;;24.80;54.00;;;;;;6245872;28;20018;-72